createdAt,value
2022-08-01T00:00:06.090Z,21.23
2022-08-01T00:02:36.078Z,21.16
2022-08-01T00:05:02.992Z,21.12
2022-08-01T00:07:29.520Z,21.11
2022-08-01T00:09:55.999Z,20.96
2022-08-01T00:12:22.538Z,20.95
2022-08-01T00:14:49.353Z,20.93
2022-08-01T00:17:16.158Z,20.79
2022-08-01T00:19:42.937Z,20.85
2022-08-01T00:22:09.877Z,20.82
2022-08-01T00:24:36.663Z,20.61
2022-08-01T00:27:03.309Z,20.57
2022-08-01T00:30:10.064Z,20.64
2022-08-01T00:32:16.689Z,20.58
2022-08-01T00:34:43.209Z,20.42
2022-08-01T00:37:10.511Z,20.45
2022-08-01T00:39:42.604Z,20.23
2022-08-01T00:42:11.244Z,20.28
2022-08-01T00:44:38.341Z,20.14
2022-08-01T00:47:05.957Z,20.21
2022-08-01T00:49:32.681Z,20.15
2022-08-01T00:52:00.180Z,20.10
2022-08-01T00:54:28.037Z,20.07
2022-08-01T00:56:55.783Z,19.98
2022-08-01T00:59:23.445Z,19.98
2022-08-01T01:01:52.786Z,19.89
2022-08-01T01:04:20.488Z,19.90
2022-08-01T01:07:06.046Z,19.87
2022-08-01T01:09:50.937Z,19.83
2022-08-01T01:12:20.443Z,19.83
2022-08-01T01:15:02.547Z,19.84
2022-08-01T01:17:49.394Z,19.71
2022-08-01T01:20:19.143Z,19.74
2022-08-01T01:23:02.095Z,19.91
2022-08-01T01:25:52.629Z,19.95
2022-08-01T01:28:22.310Z,19.99
2022-08-01T01:30:52.796Z,20.01
2022-08-01T01:33:22.055Z,19.94
2022-08-01T01:35:53.082Z,19.88
2022-08-01T01:38:22.654Z,19.98
2022-08-01T01:40:51.459Z,20.11
2022-08-01T01:43:18.942Z,20.14
2022-08-01T01:45:48.095Z,20.14
2022-08-01T01:48:17.461Z,20.18
2022-08-01T01:50:47.257Z,20.18
2022-08-01T01:53:17.168Z,20.17
2022-08-01T01:55:49.391Z,20.14
2022-08-01T01:58:19.467Z,20.09
2022-08-01T02:00:49.287Z,20.18
2022-08-01T02:03:19.802Z,20.15
2022-08-01T02:05:47.762Z,19.93
2022-08-01T02:08:17.435Z,20.12
2022-08-01T02:11:06.399Z,20.14
2022-08-01T02:13:35.305Z,20.13
2022-08-01T02:16:04.138Z,20.13
2022-08-01T02:18:31.198Z,20.08
2022-08-01T02:21:00.029Z,19.92
2022-08-01T02:23:33.550Z,20.06
2022-08-01T02:26:10.790Z,20.06
2022-08-01T02:29:14.373Z,20.04
2022-08-01T02:31:46.062Z,20.00
2022-08-01T02:34:17.379Z,20.01
2022-08-01T02:36:46.844Z,20.08
2022-08-01T02:39:17.331Z,20.03
2022-08-01T02:41:49.000Z,20.07
2022-08-01T02:44:28.212Z,20.07
2022-08-01T02:47:01.478Z,20.08
2022-08-01T02:49:32.275Z,19.83
2022-08-01T02:52:02.535Z,19.97
2022-08-01T02:54:32.065Z,19.85
2022-08-01T02:56:59.374Z,19.89
2022-08-01T02:59:28.747Z,19.84
2022-08-01T03:01:57.873Z,19.82
2022-08-01T03:04:28.762Z,19.68
2022-08-01T03:06:59.759Z,19.81
2022-08-01T03:09:30.662Z,19.71
2022-08-01T03:12:02.031Z,19.75
2022-08-01T03:14:31.227Z,19.58
2022-08-01T03:17:00.858Z,19.73
2022-08-01T03:19:29.398Z,19.60
2022-08-01T03:21:59.463Z,19.77
2022-08-01T03:24:28.125Z,19.79
2022-08-01T03:26:58.710Z,19.61
2022-08-01T03:29:28.343Z,19.76
2022-08-01T03:31:56.245Z,19.75
2022-08-01T03:34:22.928Z,19.66
2022-08-01T03:36:56.905Z,19.75
2022-08-01T03:39:29.130Z,19.73
2022-08-01T03:42:00.618Z,19.60
2022-08-01T03:44:31.127Z,19.72
2022-08-01T03:47:03.922Z,19.70
2022-08-01T03:49:36.373Z,19.66
2022-08-01T03:52:08.104Z,19.52
2022-08-01T03:54:38.368Z,19.63
2022-08-01T03:57:06.045Z,19.59
2022-08-01T03:59:35.531Z,19.31
2022-08-01T04:02:02.962Z,19.36
2022-08-01T04:04:30.569Z,19.50
2022-08-01T04:06:57.123Z,19.48
2022-08-01T04:09:23.950Z,19.35
2022-08-01T04:11:50.602Z,19.45
2022-08-01T04:14:17.278Z,19.51
2022-08-01T04:16:43.916Z,19.40
2022-08-01T04:19:10.448Z,19.53
2022-08-01T04:21:38.090Z,19.52
2022-08-01T04:24:10.040Z,19.39
2022-08-01T04:26:38.585Z,19.53
2022-08-01T04:29:07.702Z,19.43
2022-08-01T04:31:37.064Z,19.45
2022-08-01T04:34:06.814Z,19.46
2022-08-01T04:36:36.757Z,19.40
2022-08-01T04:39:06.935Z,19.43
2022-08-01T04:41:34.699Z,19.36
2022-08-01T04:44:01.826Z,19.35
2022-08-01T04:46:29.785Z,19.32
2022-08-01T04:48:57.369Z,19.22
2022-08-01T04:51:23.992Z,19.17
2022-08-01T04:53:52.185Z,19.28
2022-08-01T04:56:21.805Z,19.26
2022-08-01T04:58:48.840Z,19.31
2022-08-01T05:01:15.490Z,19.06
2022-08-01T05:03:42.233Z,19.33
2022-08-01T05:06:08.988Z,19.38
2022-08-01T05:08:37.322Z,19.31
2022-08-01T05:11:04.464Z,19.33
2022-08-01T05:13:31.633Z,19.41
2022-08-01T05:15:58.239Z,19.44
2022-08-01T05:18:28.377Z,19.33
2022-08-01T05:20:55.744Z,19.46
2022-08-01T05:23:30.990Z,19.51
2022-08-01T05:26:09.515Z,19.54
2022-08-01T05:28:36.274Z,19.50
2022-08-01T05:31:03.524Z,19.46
2022-08-01T05:33:30.063Z,19.61
2022-08-01T05:35:56.670Z,19.61
2022-08-01T05:38:23.265Z,19.80
2022-08-01T05:40:49.929Z,19.93
2022-08-01T05:43:16.667Z,20.38
2022-08-01T05:45:43.227Z,20.61
2022-08-01T05:48:09.723Z,20.86
2022-08-01T05:50:36.242Z,21.11
2022-08-01T05:53:02.759Z,21.17
2022-08-01T05:55:29.515Z,21.27
2022-08-01T05:57:56.647Z,21.20
2022-08-01T06:00:23.476Z,21.01
2022-08-01T06:02:50.130Z,21.18
2022-08-01T06:05:16.853Z,21.05
2022-08-01T06:07:43.402Z,20.97
2022-08-01T06:10:10.195Z,20.87
2022-08-01T06:12:37.775Z,20.85
2022-08-01T06:15:06.090Z,20.74
2022-08-01T06:17:32.710Z,20.76
2022-08-01T06:19:59.440Z,20.53
2022-08-01T06:22:26.119Z,20.57
2022-08-01T06:24:52.948Z,20.70
2022-08-01T06:27:21.483Z,20.68
2022-08-01T06:29:51.354Z,20.64
2022-08-01T06:32:26.697Z,20.54
2022-08-01T06:34:55.537Z,20.56
2022-08-01T06:37:22.606Z,20.47
2022-08-01T06:39:50.454Z,20.46
2022-08-01T06:42:17.742Z,20.44
2022-08-01T06:44:44.416Z,20.64
2022-08-01T06:47:11.093Z,20.69
2022-08-01T06:49:38.205Z,20.78
2022-08-01T06:52:05.415Z,20.72
2022-08-01T06:54:32.218Z,20.89
2022-08-01T06:56:58.809Z,20.86
2022-08-01T06:59:25.673Z,20.72
2022-08-01T07:01:52.185Z,20.98
2022-08-01T07:04:18.716Z,20.95
2022-08-01T07:06:45.217Z,20.86
2022-08-01T07:09:14.400Z,21.07
2022-08-01T07:11:41.458Z,21.09
2022-08-01T07:14:08.188Z,21.16
2022-08-01T07:16:34.837Z,21.16
2022-08-01T07:19:01.492Z,21.00
2022-08-01T07:21:39.318Z,21.28
2022-08-01T07:24:12.943Z,21.22
2022-08-01T07:26:53.335Z,21.24
2022-08-01T07:29:24.522Z,21.36
2022-08-01T07:31:53.929Z,21.40
2022-08-01T07:34:20.713Z,21.44
2022-08-01T07:36:47.450Z,21.43
2022-08-01T07:39:14.011Z,21.52
2022-08-01T07:41:45.609Z,21.55
2022-08-01T07:44:28.061Z,21.61
2022-08-01T07:46:55.758Z,21.71
2022-08-01T07:49:23.025Z,21.80
2022-08-01T07:52:03.234Z,21.84
2022-08-01T07:54:33.250Z,21.98
2022-08-01T07:57:01.328Z,22.03
2022-08-01T07:59:27.926Z,22.11
2022-08-01T08:01:54.542Z,22.24
2022-08-01T08:04:21.148Z,22.21
2022-08-01T08:06:48.624Z,22.04
2022-08-01T08:09:16.232Z,22.18
2022-08-01T08:11:48.141Z,22.17
2022-08-01T08:14:18.794Z,22.10
2022-08-01T08:16:46.654Z,22.18
2022-08-01T08:19:13.315Z,22.14
2022-08-01T08:21:40.605Z,22.37
2022-08-01T08:24:25.953Z,22.46
2022-08-01T08:27:01.074Z,22.73
2022-08-01T08:29:30.599Z,22.82
2022-08-01T08:31:58.780Z,22.93
2022-08-01T08:34:27.165Z,23.00
2022-08-01T08:36:55.770Z,22.97
2022-08-01T08:39:23.121Z,23.01
2022-08-01T08:41:50.421Z,23.03
2022-08-01T08:44:18.593Z,22.98
2022-08-01T08:46:56.935Z,23.15
2022-08-01T08:49:27.077Z,23.02
2022-08-01T08:52:03.091Z,23.02
2022-08-01T08:54:31.912Z,23.01
2022-08-01T08:57:00.233Z,23.25
2022-08-01T08:59:27.439Z,23.26
2022-08-01T09:01:54.232Z,23.30
2022-08-01T09:04:26.415Z,23.41
2022-08-01T09:06:54.130Z,23.36
2022-08-01T09:09:20.935Z,23.59
2022-08-01T09:12:05.118Z,23.60
2022-08-01T09:14:32.590Z,23.84
2022-08-01T09:17:09.817Z,23.98
2022-08-01T09:19:42.302Z,23.92
2022-08-01T09:22:12.150Z,23.90
2022-08-01T09:24:40.862Z,23.69
2022-08-01T09:27:21.661Z,23.91
2022-08-01T09:29:49.716Z,23.98
2022-08-01T09:32:23.421Z,24.07
2022-08-01T09:34:52.766Z,24.17
2022-08-01T09:37:37.238Z,23.93
2022-08-01T09:40:04.624Z,24.05
2022-08-01T09:42:31.163Z,23.96
2022-08-01T09:44:57.847Z,23.64
2022-08-01T09:47:38.810Z,23.94
2022-08-01T09:50:10.722Z,23.82
2022-08-01T09:52:38.184Z,23.94
2022-08-01T09:55:08.779Z,23.91
2022-08-01T09:57:35.414Z,23.82
2022-08-01T10:00:03.055Z,23.83
2022-08-01T10:02:36.549Z,23.75
2022-08-01T10:05:08.077Z,23.85
2022-08-01T10:07:43.907Z,23.77
2022-08-01T10:10:15.797Z,23.66
2022-08-01T10:12:45.548Z,23.61
2022-08-01T10:15:18.559Z,23.52
2022-08-01T10:17:57.223Z,23.55
2022-08-01T10:20:32.245Z,23.74
2022-08-01T10:23:06.213Z,23.85
2022-08-01T10:25:43.618Z,24.07
2022-08-01T10:28:21.379Z,24.46
2022-08-01T10:30:53.082Z,24.58
2022-08-01T10:33:51.392Z,24.58
2022-08-01T10:36:10.769Z,24.65
2022-08-01T10:38:37.948Z,24.64
2022-08-01T10:41:06.351Z,24.58
2022-08-01T10:43:35.562Z,24.51
2022-08-01T10:46:04.791Z,24.50
2022-08-01T10:48:44.131Z,24.33
2022-08-01T10:51:18.083Z,24.44
2022-08-01T10:54:07.566Z,24.44
2022-08-01T10:56:51.361Z,24.15
2022-08-01T10:59:39.027Z,24.27
2022-08-01T11:02:10.520Z,24.08
2022-08-01T11:04:46.771Z,24.20
2022-08-01T11:07:20.188Z,24.34
2022-08-01T11:10:02.282Z,24.70
2022-08-01T11:12:43.880Z,25.10
2022-08-01T11:15:10.712Z,25.32
2022-08-01T11:17:42.327Z,25.64
2022-08-01T11:20:17.546Z,25.92
2022-08-01T11:23:00.116Z,25.88
2022-08-01T11:26:03.243Z,25.80
2022-08-01T11:28:28.680Z,25.74
2022-08-01T11:31:11.189Z,25.75
2022-08-01T11:33:46.848Z,25.96
2022-08-01T11:36:14.289Z,26.30
2022-08-01T11:38:47.071Z,26.92
2022-08-01T11:41:18.277Z,27.23
2022-08-01T11:44:12.113Z,27.30
2022-08-01T11:47:00.627Z,27.32
2022-08-01T11:49:30.459Z,27.69
2022-08-01T11:52:20.773Z,28.31
2022-08-01T11:54:54.883Z,28.99
2022-08-01T11:57:24.194Z,29.56
2022-08-01T12:00:04.441Z,30.15
2022-08-01T12:02:35.049Z,30.65
2022-08-01T12:05:05.838Z,30.93
2022-08-01T12:07:37.248Z,31.17
2022-08-01T12:10:12.490Z,31.43
2022-08-01T12:12:51.297Z,31.71
2022-08-01T12:15:20.387Z,31.90
2022-08-01T12:17:58.143Z,31.97
2022-08-01T12:20:32.276Z,32.07
2022-08-01T12:23:01.567Z,32.24
2022-08-01T12:25:28.525Z,32.19
2022-08-01T12:27:56.907Z,32.29
2022-08-01T12:30:25.252Z,32.44
2022-08-01T12:32:53.266Z,32.47
2022-08-01T12:35:28.345Z,32.29
2022-08-01T12:37:58.059Z,32.45
2022-08-01T12:40:28.062Z,32.34
2022-08-01T12:43:03.370Z,31.83
2022-08-01T12:45:35.004Z,31.78
2022-08-01T12:48:02.540Z,31.54
2022-08-01T12:50:31.754Z,31.08
2022-08-01T12:52:59.891Z,30.55
2022-08-01T12:55:33.813Z,30.70
2022-08-01T12:58:16.160Z,30.85
2022-08-01T13:00:45.975Z,30.99
2022-08-01T13:03:21.071Z,31.21
2022-08-01T13:05:51.202Z,31.34
2022-08-01T13:08:22.438Z,31.18
2022-08-01T13:10:49.963Z,31.22
2022-08-01T13:13:27.935Z,31.35
2022-08-01T13:16:05.537Z,31.49
2022-08-01T13:18:33.811Z,31.20
2022-08-01T13:21:17.693Z,31.29
2022-08-01T13:24:13.529Z,31.47
2022-08-01T13:26:46.156Z,31.75
2022-08-01T13:29:16.191Z,32.11
2022-08-01T13:31:43.468Z,32.36
2022-08-01T13:34:10.714Z,32.64
2022-08-01T13:36:37.867Z,32.85
2022-08-01T13:39:24.090Z,32.91
2022-08-01T13:41:51.049Z,33.09
2022-08-01T13:44:17.742Z,33.24
2022-08-01T13:46:49.481Z,33.07
2022-08-01T13:49:19.038Z,32.97
2022-08-01T13:51:47.532Z,32.80
2022-08-01T13:54:14.294Z,33.16
2022-08-01T13:56:40.824Z,33.03
2022-08-01T13:59:07.652Z,33.03
2022-08-01T14:01:35.277Z,32.95
2022-08-01T14:04:03.137Z,32.58
2022-08-01T14:06:30.742Z,31.86
2022-08-01T14:08:57.473Z,31.36
2022-08-01T14:11:24.482Z,30.95
2022-08-01T14:13:51.276Z,30.84
2022-08-01T14:16:18.554Z,30.62
2022-08-01T14:18:46.307Z,30.65
2022-08-01T14:21:13.732Z,30.58
2022-08-01T14:23:40.471Z,30.65
2022-08-01T14:26:11.874Z,30.88
2022-08-01T14:28:39.778Z,30.90
2022-08-01T14:31:09.710Z,30.49
2022-08-01T14:33:37.560Z,30.28
2022-08-01T14:36:28.600Z,30.29
2022-08-01T14:38:51.263Z,30.06
2022-08-01T14:41:17.891Z,30.22
2022-08-01T14:43:45.518Z,30.25
2022-08-01T14:46:13.465Z,30.12
2022-08-01T14:48:40.474Z,30.08
2022-08-01T14:51:08.391Z,29.90
2022-08-01T14:53:37.321Z,29.84
2022-08-01T14:56:08.140Z,29.67
2022-08-01T14:58:34.773Z,29.57
2022-08-01T15:01:01.599Z,29.52
2022-08-01T15:03:28.461Z,29.89
2022-08-01T15:05:55.054Z,29.90
2022-08-01T15:08:21.806Z,30.00
2022-08-01T15:10:48.394Z,29.94
2022-08-01T15:13:14.904Z,30.05
2022-08-01T15:15:41.586Z,30.53
2022-08-01T15:18:08.129Z,30.90
2022-08-01T15:20:34.737Z,31.22
2022-08-01T15:23:01.424Z,31.29
2022-08-01T15:25:40.311Z,31.44
2022-08-01T15:28:07.494Z,31.21
2022-08-01T15:30:35.595Z,30.99
2022-08-01T15:33:02.164Z,30.97
2022-08-01T15:35:28.731Z,31.00
2022-08-01T15:37:55.326Z,30.85
2022-08-01T15:40:22.212Z,30.82
2022-08-01T15:42:48.714Z,30.49
2022-08-01T15:45:44.426Z,30.22
2022-08-01T15:48:06.254Z,30.10
2022-08-01T15:50:33.019Z,29.81
2022-08-01T15:52:59.519Z,29.77
2022-08-01T15:55:26.149Z,29.50
2022-08-01T15:57:52.756Z,29.48
2022-08-01T16:00:19.309Z,29.83
2022-08-01T16:02:45.960Z,30.23
2022-08-01T16:05:12.498Z,30.70
2022-08-01T16:07:59.872Z,30.85
2022-08-01T16:10:26.399Z,31.19
2022-08-01T16:12:52.944Z,31.35
2022-08-01T16:15:19.617Z,31.51
2022-08-01T16:17:46.146Z,31.56
2022-08-01T16:20:12.828Z,31.66
2022-08-01T16:22:39.475Z,31.74
2022-08-01T16:25:07.027Z,31.83
2022-08-01T16:27:34.032Z,31.83
2022-08-01T16:30:06.402Z,31.80
2022-08-01T16:32:36.001Z,31.65
2022-08-01T16:35:09.979Z,31.68
2022-08-01T16:37:36.744Z,31.62
2022-08-01T16:40:04.288Z,31.51
2022-08-01T16:42:30.843Z,31.47
2022-08-01T16:44:59.379Z,31.55
2022-08-01T16:47:26.001Z,31.52
2022-08-01T16:49:52.571Z,31.31
2022-08-01T16:52:19.066Z,31.01
2022-08-01T16:54:45.552Z,30.84
2022-08-01T16:57:12.503Z,30.57
2022-08-01T16:59:41.673Z,30.42
2022-08-01T17:02:09.693Z,30.23
2022-08-01T17:04:36.258Z,30.04
2022-08-01T17:07:02.870Z,29.85
2022-08-01T17:09:29.881Z,29.45
2022-08-01T17:11:56.457Z,29.41
2022-08-01T17:14:23.620Z,29.23
2022-08-01T17:16:50.178Z,29.08
2022-08-01T17:19:16.787Z,28.87
2022-08-01T17:21:43.355Z,28.54
2022-08-01T17:24:10.125Z,28.41
2022-08-01T17:26:38.361Z,28.22
2022-08-01T17:29:04.865Z,28.03
2022-08-01T17:31:31.714Z,27.92
2022-08-01T17:33:58.247Z,27.76
2022-08-01T17:36:24.893Z,27.61
2022-08-01T17:38:51.577Z,27.48
2022-08-01T17:41:18.120Z,27.36
2022-08-01T17:43:44.591Z,27.21
2022-08-01T17:46:11.209Z,27.06
2022-08-01T17:48:37.730Z,27.09
2022-08-01T17:51:04.511Z,27.01
2022-08-01T17:53:32.237Z,26.85
2022-08-01T17:56:00.969Z,26.59
2022-08-01T17:58:36.664Z,26.78
2022-08-01T18:01:16.913Z,26.67
2022-08-01T18:03:44.738Z,26.57
2022-08-01T18:06:13.847Z,26.52
2022-08-01T18:08:41.900Z,26.40
2022-08-01T18:11:09.586Z,26.38
2022-08-01T18:13:36.473Z,26.18
2022-08-01T18:16:09.127Z,26.29
2022-08-01T18:18:36.686Z,26.24
2022-08-01T18:21:03.251Z,26.15
2022-08-01T18:23:29.818Z,26.09
2022-08-01T18:25:56.381Z,25.99
2022-08-01T18:28:31.603Z,26.00
2022-08-01T18:31:00.859Z,25.83
2022-08-01T18:33:27.909Z,25.84
2022-08-01T18:35:54.558Z,25.91
2022-08-01T18:38:22.646Z,25.69
2022-08-01T18:40:51.410Z,25.83
2022-08-01T18:43:18.200Z,25.71
2022-08-01T18:45:45.097Z,25.71
2022-08-01T18:48:12.446Z,25.62
2022-08-01T18:50:39.747Z,25.52
2022-08-01T18:53:06.835Z,25.48
2022-08-01T18:55:33.564Z,25.43
2022-08-01T18:58:00.326Z,25.37
2022-08-01T19:00:26.863Z,25.04
2022-08-01T19:02:54.029Z,25.15
2022-08-01T19:05:20.663Z,24.98
2022-08-01T19:08:05.198Z,25.14
2022-08-01T19:10:38.797Z,25.07
2022-08-01T19:13:05.693Z,25.06
2022-08-01T19:15:32.488Z,24.88
2022-08-01T19:17:59.336Z,24.92
2022-08-01T19:20:26.770Z,24.73
2022-08-01T19:22:53.462Z,24.70
2022-08-01T19:25:20.220Z,24.62
2022-08-01T19:27:48.781Z,24.50
2022-08-01T19:30:17.600Z,24.59
2022-08-01T19:32:46.165Z,24.28
2022-08-01T19:35:15.881Z,24.46
2022-08-01T19:37:48.926Z,24.37
2022-08-01T19:40:26.383Z,24.30
2022-08-01T19:42:55.211Z,24.05
2022-08-01T19:45:22.852Z,24.06
2022-08-01T19:47:56.840Z,23.96
2022-08-01T19:50:29.587Z,24.03
2022-08-01T19:52:57.517Z,23.84
2022-08-01T19:55:25.211Z,23.88
2022-08-01T19:58:17.272Z,23.84
2022-08-01T20:00:40.287Z,23.57
2022-08-01T20:03:09.085Z,23.71
2022-08-01T20:05:37.238Z,23.61
2022-08-01T20:08:06.655Z,23.60
2022-08-01T20:10:33.974Z,23.45
2022-08-01T20:13:01.862Z,23.51
2022-08-01T20:15:29.419Z,23.25
2022-08-01T20:17:59.493Z,23.10
2022-08-01T20:20:27.132Z,23.26
2022-08-01T20:22:56.552Z,23.17
2022-08-01T20:25:30.682Z,23.20
2022-08-01T20:28:00.791Z,23.02
2022-08-01T20:30:30.012Z,22.80
2022-08-01T20:33:00.220Z,22.81
2022-08-01T20:35:53.086Z,22.82
2022-08-01T20:38:16.390Z,22.75
2022-08-01T20:40:43.871Z,22.79
2022-08-01T20:43:12.646Z,22.71
2022-08-01T20:45:39.520Z,22.61
2022-08-01T20:48:08.389Z,22.53
2022-08-01T20:50:54.939Z,22.50
2022-08-01T20:53:24.691Z,22.56
2022-08-01T20:56:06.470Z,22.52
2022-08-01T20:59:10.868Z,22.46
2022-08-01T21:02:08.527Z,22.15
2022-08-01T21:04:56.389Z,22.34
2022-08-01T21:07:23.545Z,22.31
2022-08-01T21:10:00.896Z,22.26
2022-08-01T21:12:44.884Z,22.16
2022-08-01T21:15:27.337Z,22.11
2022-08-01T21:18:10.110Z,21.93
2022-08-01T21:20:41.947Z,21.89
2022-08-01T21:23:26.875Z,21.90
2022-08-01T21:25:56.200Z,21.75
2022-08-01T21:28:25.406Z,21.79
2022-08-01T21:30:59.018Z,21.62
2022-08-01T21:33:28.096Z,21.73
2022-08-01T21:36:01.259Z,21.77
2022-08-01T21:38:32.756Z,21.56
2022-08-01T21:41:03.590Z,21.77
2022-08-01T21:43:33.138Z,21.75
2022-08-01T21:46:01.416Z,21.60
2022-08-01T21:48:30.975Z,21.70
2022-08-01T21:51:14.993Z,21.66
2022-08-01T21:53:50.597Z,21.56
2022-08-01T21:56:39.162Z,21.60
2022-08-01T21:59:31.440Z,21.55
2022-08-01T22:02:08.335Z,21.53
2022-08-01T22:04:43.199Z,21.48
2022-08-01T22:07:14.907Z,21.24
2022-08-01T22:09:51.472Z,21.17
2022-08-01T22:12:21.762Z,21.27
2022-08-01T22:14:53.673Z,21.42
2022-08-01T22:17:24.612Z,21.33
2022-08-01T22:19:55.058Z,21.32
2022-08-01T22:22:50.389Z,21.20
2022-08-01T22:25:12.200Z,21.29
2022-08-01T22:28:06.072Z,21.09
2022-08-01T22:30:29.206Z,21.28
2022-08-01T22:33:15.553Z,21.21
2022-08-01T22:35:47.448Z,21.27
2022-08-01T22:38:14.346Z,21.16
2022-08-01T22:40:48.213Z,21.16
2022-08-01T22:43:47.897Z,21.20
2022-08-01T22:46:35.859Z,21.22
2022-08-01T22:49:35.007Z,21.19
2022-08-01T22:52:12.310Z,21.13
2022-08-01T22:54:41.525Z,21.12
2022-08-01T22:57:16.776Z,20.85
2022-08-01T22:59:55.172Z,21.00
2022-08-01T23:02:22.648Z,20.95
2022-08-01T23:04:50.315Z,20.85
2022-08-01T23:07:24.362Z,20.99
2022-08-01T23:09:55.508Z,20.90
2022-08-01T23:12:26.876Z,20.95
2022-08-01T23:14:55.794Z,20.93
2022-08-01T23:17:26.899Z,20.80
2022-08-01T23:20:02.161Z,20.87
2022-08-01T23:22:31.724Z,20.77
2022-08-01T23:25:03.979Z,20.64
2022-08-01T23:27:51.540Z,20.74
2022-08-01T23:30:27.040Z,20.76
2022-08-01T23:32:54.573Z,20.64
2022-08-01T23:35:21.500Z,20.45
2022-08-01T23:37:48.425Z,20.65
2022-08-01T23:40:15.128Z,20.39
2022-08-01T23:42:41.654Z,20.52
2022-08-01T23:45:08.717Z,20.55
2022-08-01T23:47:35.395Z,20.50
2022-08-01T23:50:02.111Z,20.55
2022-08-01T23:52:30.000Z,20.53
2022-08-01T23:54:59.985Z,20.42
2022-08-01T23:57:41.113Z,20.51
